Time;durP1;ratioP1;P1;durP2;ratioP2;P2;SDS_P1;SDS_P2;PMS_P1;PMS_P2;Temp;Humidity;BMP_temperature;BMP_pressure;BME280_temperature;BME280_humidity;BME280_pressure;Samples;Min_cycle;Max_cycle;Signal;HPM_P1;HPM_P2
2022/01/21 00:01:25;;;;;;;23.23;10.32;;;;;;;;;;4994724;28;20025;-63
2022/01/21 00:03:52;;;;;;;21.05;10.20;;;;;;;;;;4991078;28;20037;-63
2022/01/21 00:06:18;;;;;;;17.10;8.20;;;;;;;;;;4994519;28;20058;-60
2022/01/21 00:08:45;;;;;;;24.02;12.57;;;;;;;;;;4986476;28;20452;-62
2022/01/21 00:11:13;;;;;;;13.65;8.23;;;;;;;;;;4975158;28;20019;-63
2022/01/21 00:13:39;;;;;;;15.18;7.47;;;;;;;;;;4974940;28;20452;-63
2022/01/21 00:16:07;;;;;;;11.82;7.72;;;;;;;;;;4975023;28;20026;-62
2022/01/21 00:18:34;;;;;;;11.15;7.03;;;;;;;;;;4975236;28;20035;-62
2022/01/21 00:31:59;;;;;;;33.40;16.67;;;;;;;;;;4993952;28;20037;-61
2022/01/21 00:34:26;;;;;;;33.63;17.25;;;;;;;;;;4987038;28;20464;-62
2022/01/21 00:36:52;;;;;;;36.00;17.08;;;;;;;;;;4974571;28;20053;-62
2022/01/21 00:39:22;;;;;;;38.17;19.33;;;;;;;;;;4974870;28;20030;-62
2022/01/21 00:42:43;;;;;;;54.25;26.85;;;;;;;;;;4978559;28;20388;-63
2022/01/21 00:44:41;;;;;;;35.80;17.55;;;;;;;;;;4979368;28;20035;-63
2022/01/21 00:47:07;;;;;;;32.55;17.05;;;;;;;;;;4993980;28;20018;-63
2022/01/21 00:49:33;;;;;;;48.83;21.30;;;;;;;;;;4993895;28;20027;-61
2022/01/21 00:52:00;;;;;;;41.17;21.25;;;;;;;;;;4993814;28;20077;-62
2022/01/21 00:54:26;;;;;;;46.28;21.52;;;;;;;;;;4993885;28;20076;-60
2022/01/21 00:56:52;;;;;;;48.15;22.40;;;;;;;;;;4993871;28;20029;-61
2022/01/21 00:59:18;;;;;;;40.63;19.77;;;;;;;;;;4993847;28;20030;-61
2022/01/21 01:01:44;;;;;;;35.13;17.40;;;;;;;;;;4994147;28;20029;-61
2022/01/21 01:04:11;;;;;;;30.25;15.55;;;;;;;;;;4993451;28;20037;-62
2022/01/21 01:06:37;;;;;;;24.08;13.68;;;;;;;;;;4976278;28;20099;-61
2022/01/21 01:09:03;;;;;;;26.13;13.20;;;;;;;;;;4956887;28;20419;-62
2022/01/21 01:11:48;;;;;;;26.40;13.02;;;;;;;;;;4974589;28;20085;-62
2022/01/21 01:19:58;;;;;;;26.05;14.43;;;;;;;;;;4993524;28;20029;-62
2022/01/21 01:28:01;;;;;;;46.38;24.33;;;;;;;;;;4993545;28;20041;-61
2022/01/21 01:30:29;;;;;;;55.70;30.40;;;;;;;;;;4993906;28;20084;-61
2022/01/21 01:32:58;;;;;;;45.53;23.88;;;;;;;;;;4993860;28;20022;-58
2022/01/21 01:35:25;;;;;;;41.25;22.00;;;;;;;;;;4991453;28;20018;-62
2022/01/21 01:51:05;;;;;;;21.05;12.23;;;;;;;;;;4989397;28;20451;-61
2022/01/21 01:53:37;;;;;;;22.80;11.98;;;;;;;;;;4993383;28;20118;-61
2022/01/21 01:56:06;;;;;;;25.15;13.50;;;;;;;;;;4988396;28;20015;-60
2022/01/21 01:58:36;;;;;;;109.03;53.45;;;;;;;;;;4984162;28;20106;-60
2022/01/21 02:01:03;;;;;;;60.92;32.88;;;;;;;;;;4997025;28;20423;-62
2022/01/21 02:03:31;;;;;;;64.00;34.85;;;;;;;;;;4994586;28;20028;-61
2022/01/21 02:05:57;;;;;;;26.10;15.02;;;;;;;;;;4977637;28;20042;-62
2022/01/21 02:08:23;;;;;;;30.27;16.65;;;;;;;;;;4976821;28;20056;-60
2022/01/21 02:10:49;;;;;;;14.13;8.75;;;;;;;;;;4991002;28;20034;-60
2022/01/21 02:13:22;;;;;;;11.20;7.03;;;;;;;;;;4996698;28;20029;-62
2022/01/21 02:16:04;;;;;;;10.23;6.40;;;;;;;;;;4996606;28;20536;-60
2022/01/21 02:23:54;;;;;;;11.85;6.00;;;;;;;;;;4996445;28;20464;-61
2022/01/21 02:26:20;;;;;;;10.93;6.70;;;;;;;;;;4996334;28;20030;-64
2022/01/21 02:28:46;;;;;;;15.50;8.25;;;;;;;;;;4996269;28;20030;-62
2022/01/21 02:31:13;;;;;;;12.07;7.18;;;;;;;;;;4997132;28;20471;-63
2022/01/21 02:33:39;;;;;;;13.05;7.47;;;;;;;;;;4992361;28;20048;-64
2022/01/21 02:36:05;;;;;;;20.17;11.32;;;;;;;;;;4976698;28;20440;-61
2022/01/21 02:38:31;;;;;;;8.80;4.50;;;;;;;;;;4976738;28;20027;-63
2022/01/21 02:40:57;;;;;;;6.88;4.00;;;;;;;;;;4976975;28;20190;-63
2022/01/21 02:43:24;;;;;;;5.28;3.22;;;;;;;;;;4976678;28;20019;-64
2022/01/21 02:45:50;;;;;;;5.18;2.70;;;;;;;;;;4976922;28;20077;-63
2022/01/21 02:48:18;;;;;;;3.83;2.30;;;;;;;;;;4977187;28;20027;-60
2022/01/21 02:50:44;;;;;;;5.38;3.03;;;;;;;;;;4995954;28;20056;-62
2022/01/21 02:53:24;;;;;;;8.43;3.92;;;;;;;;;;4996088;28;20035;-62
2022/01/21 02:55:51;;;;;;;5.40;3.17;;;;;;;;;;4996316;28;20018;-62
2022/01/21 02:58:17;;;;;;;8.30;3.92;;;;;;;;;;4996203;28;20472;-61
2022/01/21 03:00:43;;;;;;;6.95;4.30;;;;;;;;;;5015290;28;20026;-62
2022/01/21 03:03:10;;;;;;;6.72;3.90;;;;;;;;;;5014823;28;20376;-64
2022/01/21 03:05:38;;;;;;;12.13;6.35;;;;;;;;;;4975989;28;20030;-60
2022/01/21 03:08:05;;;;;;;14.32;7.25;;;;;;;;;;4975768;28;20115;-60
2022/01/21 03:10:31;;;;;;;8.60;4.50;;;;;;;;;;4976153;28;20055;-63
2022/01/21 03:12:57;;;;;;;8.88;4.80;;;;;;;;;;4976083;28;20027;-62
2022/01/21 03:15:23;;;;;;;10.32;4.78;;;;;;;;;;4976361;28;20023;-59
2022/01/21 03:17:49;;;;;;;10.60;5.32;;;;;;;;;;4975915;28;20109;-59
2022/01/21 03:20:16;;;;;;;15.30;7.43;;;;;;;;;;4976199;28;20019;-61
2022/01/21 03:22:42;;;;;;;10.25;5.22;;;;;;;;;;4976444;28;20089;-60
2022/01/21 03:25:09;;;;;;;9.50;4.95;;;;;;;;;;4975429;28;20027;-62
2022/01/21 03:27:35;;;;;;;8.98;4.65;;;;;;;;;;4976512;28;20027;-59
2022/01/21 03:30:03;;;;;;;8.02;4.50;;;;;;;;;;4975734;28;20058;-63
2022/01/21 03:32:29;;;;;;;16.75;6.47;;;;;;;;;;4975737;28;20023;-62
2022/01/21 03:34:55;;;;;;;19.73;7.85;;;;;;;;;;4975725;28;20019;-62
2022/01/21 03:37:21;;;;;;;14.77;6.63;;;;;;;;;;4975921;28;20027;-61
2022/01/21 03:39:47;;;;;;;11.73;5.18;;;;;;;;;;4975694;28;20025;-63
2022/01/21 03:42:14;;;;;;;8.55;3.88;;;;;;;;;;4975774;28;20027;-63
2022/01/21 03:44:40;;;;;;;9.65;4.18;;;;;;;;;;4994888;28;20025;-62
2022/01/21 03:47:06;;;;;;;6.72;3.85;;;;;;;;;;4994772;28;20018;-61
2022/01/21 03:49:38;;;;;;;12.60;5.60;;;;;;;;;;4995131;28;20081;-60
2022/01/21 03:52:06;;;;;;;14.85;6.15;;;;;;;;;;4995063;28;20033;-63
2022/01/21 03:54:32;;;;;;;9.32;4.40;;;;;;;;;;4994522;28;20029;-62
2022/01/21 03:56:59;;;;;;;7.32;4.40;;;;;;;;;;4995035;28;20080;-63
2022/01/21 03:59:25;;;;;;;6.78;3.85;;;;;;;;;;4994682;28;20444;-61
2022/01/21 04:01:51;;;;;;;8.13;4.13;;;;;;;;;;4994361;28;20035;-63
2022/01/21 04:04:18;;;;;;;5.40;3.10;;;;;;;;;;4994893;28;20065;-60
2022/01/21 04:06:44;;;;;;;5.25;3.38;;;;;;;;;;4994550;28;20022;-61
2022/01/21 04:09:11;;;;;;;6.97;4.15;;;;;;;;;;4994700;28;20054;-63
2022/01/21 04:11:37;;;;;;;8.70;3.97;;;;;;;;;;4994679;28;20387;-62
2022/01/21 04:14:04;;;;;;;5.38;3.40;;;;;;;;;;4994132;28;20023;-59
2022/01/21 04:16:30;;;;;;;4.40;2.80;;;;;;;;;;4994985;28;20030;-61
2022/01/21 04:18:56;;;;;;;4.93;2.63;;;;;;;;;;4988414;28;20490;-62
2022/01/21 04:21:22;;;;;;;4.95;2.40;;;;;;;;;;4974639;28;20474;-62
2022/01/21 04:23:49;;;;;;;4.07;2.33;;;;;;;;;;4975395;28;20512;-61
2022/01/21 04:26:15;;;;;;;3.42;1.92;;;;;;;;;;4975064;28;20050;-61
2022/01/21 04:28:41;;;;;;;4.32;2.45;;;;;;;;;;4974709;28;20027;-58
2022/01/21 04:31:07;;;;;;;4.35;2.05;;;;;;;;;;4974416;28;20404;-61
2022/01/21 04:33:33;;;;;;;4.30;2.35;;;;;;;;;;4957269;28;20097;-60
2022/01/21 04:35:59;;;;;;;4.85;2.38;;;;;;;;;;4974723;28;20111;-61
2022/01/21 04:38:26;;;;;;;3.83;2.20;;;;;;;;;;4974613;28;20035;-63
2022/01/21 04:41:04;;;;;;;3.53;1.92;;;;;;;;;;4974860;28;20031;-59
2022/01/21 04:48:59;;;;;;;6.28;2.92;;;;;;;;;;4993769;28;20089;-57
2022/01/21 04:51:28;;;;;;;11.90;5.50;;;;;;;;;;4994295;28;20105;-59
2022/01/21 04:53:55;;;;;;;12.25;5.15;;;;;;;;;;4993961;28;20022;-60
2022/01/21 04:56:21;;;;;;;9.20;4.20;;;;;;;;;;4993588;28;20038;-59
2022/01/21 04:58:48;;;;;;;6.90;2.92;;;;;;;;;;4994245;28;20030;-60
2022/01/21 05:01:14;;;;;;;6.35;3.25;;;;;;;;;;4994193;28;20026;-62
2022/01/21 05:03:41;;;;;;;6.60;3.22;;;;;;;;;;4993853;28;20030;-62
2022/01/21 05:06:08;;;;;;;4.68;2.85;;;;;;;;;;4994171;28;20236;-62
2022/01/21 05:08:52;;;;;;;3.72;2.67;;;;;;;;;;4994031;28;20137;-61
2022/01/21 05:11:18;;;;;;;8.80;4.00;;;;;;;;;;4993739;28;20022;-61
2022/01/21 05:13:55;;;;;;;6.60;3.85;;;;;;;;;;4994001;28;20031;-64
2022/01/21 05:18:53;;;;;;;11.30;4.50;;;;;;;;;;4992996;28;20084;-58
2022/01/21 05:21:19;;;;;;;8.80;4.65;;;;;;;;;;4992573;28;20031;-58
2022/01/21 05:23:46;;;;;;;7.47;4.07;;;;;;;;;;4993207;28;20053;-61
2022/01/21 05:26:12;;;;;;;4.22;3.03;;;;;;;;;;4993538;28;20027;-62
2022/01/21 05:28:45;;;;;;;6.82;3.30;;;;;;;;;;4993597;28;20045;-62
2022/01/21 05:31:12;;;;;;;6.45;3.00;;;;;;;;;;4996439;28;20072;-61
2022/01/21 05:33:38;;;;;;;6.53;4.10;;;;;;;;;;4997268;28;20068;-61
2022/01/21 05:36:05;;;;;;;5.95;3.63;;;;;;;;;;4997537;28;20047;-61
2022/01/21 05:38:31;;;;;;;4.38;2.60;;;;;;;;;;4996860;28;20477;-61
2022/01/21 05:40:59;;;;;;;6.85;2.95;;;;;;;;;;4997610;28;20455;-60
2022/01/21 05:43:27;;;;;;;7.05;3.80;;;;;;;;;;4997501;28;20031;-62
2022/01/21 05:48:38;;;;;;;7.13;4.03;;;;;;;;;;4996835;28;20141;-60
2022/01/21 05:51:04;;;;;;;8.55;4.60;;;;;;;;;;4997119;28;20113;-62
2022/01/21 05:53:30;;;;;;;9.60;4.63;;;;;;;;;;4996867;28;20058;-61
2022/01/21 05:56:01;;;;;;;15.70;6.35;;;;;;;;;;4996908;28;20030;-61
2022/01/21 05:58:27;;;;;;;15.80;6.95;;;;;;;;;;4996754;28;20109;-61
2022/01/21 06:00:53;;;;;;;16.40;8.63;;;;;;;;;;4996759;28;20035;-61
2022/01/21 06:03:20;;;;;;;18.83;10.20;;;;;;;;;;4996665;28;20480;-63
2022/01/21 06:05:46;;;;;;;40.08;18.10;;;;;;;;;;4996257;28;20387;-58
2022/01/21 06:08:12;;;;;;;30.48;13.05;;;;;;;;;;4996304;28;20109;-60
2022/01/21 06:10:38;;;;;;;24.90;11.32;;;;;;;;;;4996605;28;20034;-61
2022/01/21 06:13:05;;;;;;;22.15;11.38;;;;;;;;;;4996525;28;20026;-63
2022/01/21 06:15:31;;;;;;;20.15;9.98;;;;;;;;;;4996718;28;20023;-61
2022/01/21 06:17:59;;;;;;;32.05;15.10;;;;;;;;;;4996673;28;20105;-62
2022/01/21 06:20:29;;;;;;;21.92;11.82;;;;;;;;;;4995980;28;20105;-58
2022/01/21 06:22:56;;;;;;;21.70;10.63;;;;;;;;;;4997037;28;20448;-61
2022/01/21 06:25:22;;;;;;;16.90;9.75;;;;;;;;;;4996383;28;20521;-59
2022/01/21 06:27:48;;;;;;;15.15;8.60;;;;;;;;;;4996020;28;20495;-63
2022/01/21 06:30:14;;;;;;;18.27;8.90;;;;;;;;;;4996610;28;20459;-61
2022/01/21 06:32:41;;;;;;;16.25;8.00;;;;;;;;;;4996777;28;20022;-60
2022/01/21 06:35:07;;;;;;;19.50;8.57;;;;;;;;;;4996288;28;20468;-61
2022/01/21 06:37:34;;;;;;;18.13;8.98;;;;;;;;;;4996497;28;20033;-62
2022/01/21 06:40:00;;;;;;;17.90;8.77;;;;;;;;;;4996082;28;20058;-63
2022/01/21 06:42:28;;;;;;;18.88;9.85;;;;;;;;;;4995120;28;20027;-60
2022/01/21 06:44:54;;;;;;;28.60;15.10;;;;;;;;;;4995891;28;20022;-61
2022/01/21 06:47:21;;;;;;;74.40;36.08;;;;;;;;;;4996263;28;20069;-62
2022/01/21 06:49:47;;;;;;;69.65;33.25;;;;;;;;;;4987475;28;20038;-61
2022/01/21 06:52:14;;;;;;;127.47;55.13;;;;;;;;;;4992390;28;20033;-63
2022/01/21 06:54:40;;;;;;;101.78;44.88;;;;;;;;;;4976056;28;20027;-60
2022/01/21 06:57:06;;;;;;;96.88;44.75;;;;;;;;;;4976303;28;20030;-60
2022/01/21 06:59:32;;;;;;;88.55;39.80;;;;;;;;;;4978768;28;20054;-61
2022/01/21 07:01:59;;;;;;;74.65;35.63;;;;;;;;;;4988116;28;20034;-60
2022/01/21 07:04:25;;;;;;;78.65;37.58;;;;;;;;;;4985099;28;20037;-55
2022/01/21 07:06:51;;;;;;;83.30;37.25;;;;;;;;;;4980463;28;20030;-62
2022/01/21 07:09:17;;;;;;;62.97;28.70;;;;;;;;;;4995082;28;20050;-64
2022/01/21 07:11:43;;;;;;;44.30;20.70;;;;;;;;;;4994386;28;20369;-61
2022/01/21 07:14:09;;;;;;;39.13;18.63;;;;;;;;;;4993666;28;20085;-60
2022/01/21 07:16:35;;;;;;;77.82;40.42;;;;;;;;;;4992649;28;20089;-62
2022/01/21 07:19:02;;;;;;;68.32;30.92;;;;;;;;;;4993479;28;20052;-57
2022/01/21 07:21:31;;;;;;;97.95;43.20;;;;;;;;;;4986197;28;20427;-62
2022/01/21 07:23:57;;;;;;;150.30;58.80;;;;;;;;;;4984650;28;20030;-62
2022/01/21 07:26:23;;;;;;;123.43;52.95;;;;;;;;;;4983620;28;20026;-62
2022/01/21 07:28:49;;;;;;;91.05;40.30;;;;;;;;;;4995357;28;20034;-63
2022/01/21 07:31:15;;;;;;;70.40;33.05;;;;;;;;;;4993560;28;20022;-63
2022/01/21 07:33:41;;;;;;;56.42;25.67;;;;;;;;;;4993459;28;20018;-63
2022/01/21 07:36:07;;;;;;;54.22;25.52;;;;;;;;;;4992790;28;20458;-62
2022/01/21 07:38:34;;;;;;;36.05;18.42;;;;;;;;;;4993501;28;20434;-62
2022/01/21 07:41:00;;;;;;;28.15;13.93;;;;;;;;;;4993438;28;20077;-60
2022/01/21 07:43:26;;;;;;;29.13;15.00;;;;;;;;;;4990424;28;20022;-60
2022/01/21 07:45:52;;;;;;;42.10;19.40;;;;;;;;;;4980929;28;20027;-60
2022/01/21 07:48:18;;;;;;;37.75;16.98;;;;;;;;;;4975675;28;20034;-62
2022/01/21 07:50:44;;;;;;;46.83;23.33;;;;;;;;;;4974995;28;20027;-62
2022/01/21 07:53:10;;;;;;;46.20;21.77;;;;;;;;;;4974899;28;20400;-61
2022/01/21 07:55:37;;;;;;;39.05;16.88;;;;;;;;;;4975378;28;20428;-61
2022/01/21 07:58:03;;;;;;;40.38;18.98;;;;;;;;;;4975196;28;20034;-63
2022/01/21 08:00:30;;;;;;;30.38;17.13;;;;;;;;;;4975616;28;20027;-62
2022/01/21 08:02:56;;;;;;;30.52;14.27;;;;;;;;;;4977537;28;20435;-60
2022/01/21 08:05:23;;;;;;;30.35;14.93;;;;;;;;;;4994094;28;20031;-64
2022/01/21 08:07:49;;;;;;;32.60;15.93;;;;;;;;;;4995018;28;20034;-58
2022/01/21 08:10:15;;;;;;;34.88;18.42;;;;;;;;;;4994025;28;20053;-63
2022/01/21 08:12:41;;;;;;;37.38;18.70;;;;;;;;;;4994360;28;20018;-59
2022/01/21 08:15:08;;;;;;;31.27;16.92;;;;;;;;;;4994033;28;20365;-58
2022/01/21 08:17:34;;;;;;;32.30;16.15;;;;;;;;;;4993904;28;20030;-61
2022/01/21 08:20:00;;;;;;;30.05;15.32;;;;;;;;;;4979123;28;20033;-61
2022/01/21 08:22:26;;;;;;;25.70;15.00;;;;;;;;;;4976238;28;20030;-61
2022/01/21 08:24:53;;;;;;;29.65;16.20;;;;;;;;;;4974849;28;20019;-62
2022/01/21 08:27:19;;;;;;;30.35;15.27;;;;;;;;;;4974503;28;20090;-63
2022/01/21 08:29:45;;;;;;;28.98;15.45;;;;;;;;;;4974791;28;20031;-61
2022/01/21 08:32:12;;;;;;;28.25;15.68;;;;;;;;;;4974905;28;20022;-61
2022/01/21 08:34:38;;;;;;;25.67;16.17;;;;;;;;;;4974617;28;20037;-61
2022/01/21 08:37:05;;;;;;;23.88;15.02;;;;;;;;;;4974809;28;20026;-61
2022/01/21 08:39:32;;;;;;;26.45;14.20;;;;;;;;;;4980331;28;20096;-61
2022/01/21 08:41:58;;;;;;;26.08;15.55;;;;;;;;;;4975862;28;20039;-61
2022/01/21 08:44:24;;;;;;;31.10;17.13;;;;;;;;;;4994963;28;20041;-60
2022/01/21 08:46:50;;;;;;;28.08;14.93;;;;;;;;;;4993178;28;20113;-62
2022/01/21 08:49:19;;;;;;;32.10;15.75;;;;;;;;;;4996161;28;20027;-64
2022/01/21 08:51:52;;;;;;;33.45;15.85;;;;;;;;;;4974258;28;20460;-61
2022/01/21 08:54:18;;;;;;;32.72;16.55;;;;;;;;;;4974361;28;20145;-63
2022/01/21 08:56:46;;;;;;;27.50;13.68;;;;;;;;;;4974552;28;20077;-62
2022/01/21 08:59:12;;;;;;;24.60;13.70;;;;;;;;;;4974534;28;20027;-61
2022/01/21 09:01:38;;;;;;;23.70;14.40;;;;;;;;;;4984668;28;20030;-60
2022/01/21 09:04:05;;;;;;;27.35;13.43;;;;;;;;;;4977799;28;20019;-61
2022/01/21 09:06:31;;;;;;;25.83;14.05;;;;;;;;;;4978145;28;20122;-63
2022/01/21 09:08:57;;;;;;;23.35;12.48;;;;;;;;;;4979530;28;20055;-60
2022/01/21 09:11:24;;;;;;;23.70;13.57;;;;;;;;;;4996740;28;20025;-63
2022/01/21 09:13:51;;;;;;;29.20;15.63;;;;;;;;;;4984258;28;20027;-61
2022/01/21 09:16:18;;;;;;;25.17;14.82;;;;;;;;;;4977699;28;20030;-59
2022/01/21 09:18:51;;;;;;;29.67;17.60;;;;;;;;;;4977869;28;20022;-61
2022/01/21 09:21:19;;;;;;;38.45;18.77;;;;;;;;;;4976969;28;20027;-64
2022/01/21 09:23:49;;;;;;;36.90;19.60;;;;;;;;;;4996227;28;20353;-54
2022/01/21 09:26:17;;;;;;;35.15;19.63;;;;;;;;;;4995832;28;20160;-56
2022/01/21 09:28:43;;;;;;;34.15;19.20;;;;;;;;;;4988271;28;20113;-55
2022/01/21 09:31:09;;;;;;;42.63;21.13;;;;;;;;;;4978205;28;20041;-57
2022/01/21 09:33:36;;;;;;;39.20;21.48;;;;;;;;;;4979454;28;20026;-54
2022/01/21 09:36:02;;;;;;;40.00;21.08;;;;;;;;;;4981446;28;20030;-56
2022/01/21 09:38:29;;;;;;;27.10;16.30;;;;;;;;;;4977937;28;20022;-53
2022/01/21 09:40:55;;;;;;;23.30;14.40;;;;;;;;;;4977766;28;20110;-51
2022/01/21 09:43:22;;;;;;;26.70;15.65;;;;;;;;;;4976591;28;20019;-55
2022/01/21 09:45:51;;;;;;;26.13;14.50;;;;;;;;;;4978216;28;20027;-58
2022/01/21 09:48:23;;;;;;;20.65;11.82;;;;;;;;;;4977920;28;20089;-57
2022/01/21 09:50:51;;;;;;;24.67;14.10;;;;;;;;;;4978706;28;20031;-55
2022/01/21 09:53:19;;;;;;;30.42;16.70;;;;;;;;;;4992753;28;20015;-56
2022/01/21 09:55:45;;;;;;;31.05;16.35;;;;;;;;;;4995741;28;20029;-55
2022/01/21 09:58:20;;;;;;;35.95;17.35;;;;;;;;;;4995117;28;20031;-59
2022/01/21 10:00:48;;;;;;;34.67;18.92;;;;;;;;;;4995323;28;20026;-57
2022/01/21 10:03:15;;;;;;;37.03;20.50;;;;;;;;;;4995429;28;20403;-55
2022/01/21 10:05:45;;;;;;;39.40;21.38;;;;;;;;;;4996264;28;20023;-54
2022/01/21 10:08:11;;;;;;;36.78;19.48;;;;;;;;;;4988559;28;20471;-56
2022/01/21 10:10:40;;;;;;;43.40;20.85;;;;;;;;;;4982374;28;20033;-57
2022/01/21 10:13:08;;;;;;;34.40;17.13;;;;;;;;;;4977318;28;20023;-57
2022/01/21 10:15:34;;;;;;;51.63;22.42;;;;;;;;;;4976464;28;20031;-54
2022/01/21 10:18:22;;;;;;;42.75;19.05;;;;;;;;;;4976868;28;20019;-50
2022/01/21 10:20:59;;;;;;;53.75;22.33;;;;;;;;;;4976737;28;20038;-52
2022/01/21 10:23:25;;;;;;;48.72;18.92;;;;;;;;;;4977100;28;20368;-55
2022/01/21 10:26:03;;;;;;;30.27;16.17;;;;;;;;;;4975796;28;20023;-52
2022/01/21 10:28:30;;;;;;;31.88;16.45;;;;;;;;;;4976370;28;20026;-55
2022/01/21 10:31:07;;;;;;;28.30;13.80;;;;;;;;;;4976501;28;20544;-56
2022/01/21 10:33:37;;;;;;;23.73;11.95;;;;;;;;;;4976150;28;20018;-55
2022/01/21 10:36:08;;;;;;;24.65;11.55;;;;;;;;;;4977010;28;20539;-55
2022/01/21 10:38:39;;;;;;;23.45;12.05;;;;;;;;;;4976346;28;20057;-56
2022/01/21 10:41:06;;;;;;;19.50;10.30;;;;;;;;;;4976354;28;20031;-55
2022/01/21 10:43:32;;;;;;;15.25;8.75;;;;;;;;;;4976765;28;20160;-52
2022/01/21 10:46:00;;;;;;;17.75;10.30;;;;;;;;;;4976103;28;20159;-57
2022/01/21 10:48:33;;;;;;;15.68;8.15;;;;;;;;;;4976417;28;20061;-57
2022/01/21 10:51:25;;;;;;;17.88;9.00;;;;;;;;;;4976346;28;20498;-51
2022/01/21 10:53:52;;;;;;;16.65;8.85;;;;;;;;;;4975919;28;20050;-55
2022/01/21 10:56:18;;;;;;;15.65;7.57;;;;;;;;;;4976371;28;20062;-52
2022/01/21 10:58:46;;;;;;;11.02;6.55;;;;;;;;;;4975967;28;20026;-50
2022/01/21 11:01:17;;;;;;;10.77;5.50;;;;;;;;;;4975995;28;20034;-54
2022/01/21 11:04:02;;;;;;;11.40;5.32;;;;;;;;;;4976270;28;20030;-57
2022/01/21 11:06:37;;;;;;;8.23;4.55;;;;;;;;;;4976397;28;20369;-52
2022/01/21 11:09:19;;;;;;;12.25;4.93;;;;;;;;;;4975576;28;20475;-52
2022/01/21 11:11:46;;;;;;;10.00;4.88;;;;;;;;;;4974882;28;20029;-50
2022/01/21 11:14:14;;;;;;;11.07;4.72;;;;;;;;;;4957351;28;20046;-54
2022/01/21 11:16:43;;;;;;;7.68;4.30;;;;;;;;;;4974876;28;20034;-52
2022/01/21 11:19:13;;;;;;;7.93;5.15;;;;;;;;;;4974523;28;20026;-52
2022/01/21 11:21:41;;;;;;;11.00;5.72;;;;;;;;;;4972704;28;20019;-54
2022/01/21 11:24:08;;;;;;;11.73;5.72;;;;;;;;;;4974165;28;20027;-48
2022/01/21 11:26:34;;;;;;;12.40;6.10;;;;;;;;;;4972848;28;20019;-55
2022/01/21 11:29:01;;;;;;;12.15;5.78;;;;;;;;;;4971518;28;20019;-54
2022/01/21 11:31:29;;;;;;;10.20;6.50;;;;;;;;;;4974696;28;20049;-51
2022/01/21 11:33:55;;;;;;;9.73;6.18;;;;;;;;;;4974960;28;20452;-52
2022/01/21 11:36:22;;;;;;;8.63;4.63;;;;;;;;;;4974577;28;20033;-52
2022/01/21 11:38:48;;;;;;;5.47;3.40;;;;;;;;;;4974730;28;20072;-53
2022/01/21 11:41:15;;;;;;;9.32;4.30;;;;;;;;;;4974063;28;20030;-51
2022/01/21 11:43:49;;;;;;;8.88;3.60;;;;;;;;;;4974625;28;20019;-51
2022/01/21 11:49:00;;;;;;;10.80;4.43;;;;;;;;;;4974518;28;20038;-53
2022/01/21 11:51:32;;;;;;;10.65;5.97;;;;;;;;;;4974814;28;20046;-55
2022/01/21 11:54:07;;;;;;;9.73;5.15;;;;;;;;;;4975104;28;20022;-53
2022/01/21 11:56:43;;;;;;;10.15;6.13;;;;;;;;;;4974032;28;20029;-52
2022/01/21 11:59:11;;;;;;;10.50;5.72;;;;;;;;;;4974312;28;20041;-56
2022/01/21 12:01:48;;;;;;;13.35;7.15;;;;;;;;;;4974490;28;20484;-53
2022/01/21 12:04:35;;;;;;;11.13;5.63;;;;;;;;;;4972416;28;20023;-54
2022/01/21 12:07:03;;;;;;;10.68;5.07;;;;;;;;;;4964139;28;20039;-57
2022/01/21 12:09:56;;;;;;;8.95;5.07;;;;;;;;;;4931779;28;1240369;-56
2022/01/21 12:12:26;;;;;;;11.10;4.75;;;;;;;;;;4975148;28;20101;-54
2022/01/21 12:15:03;;;;;;;6.03;2.60;;;;;;;;;;4974936;28;20037;-55
2022/01/21 12:17:51;;;;;;;5.97;3.83;;;;;;;;;;4974704;28;20535;-60
2022/01/21 12:20:18;;;;;;;10.05;4.68;;;;;;;;;;4974522;28;20081;-54
2022/01/21 12:22:44;;;;;;;13.43;6.32;;;;;;;;;;4974998;28;20031;-57
2022/01/21 12:25:13;;;;;;;8.40;3.90;;;;;;;;;;4974253;28;20019;-53
2022/01/21 12:27:40;;;;;;;9.77;4.70;;;;;;;;;;4972833;28;20117;-58
2022/01/21 12:30:24;;;;;;;9.02;3.72;;;;;;;;;;4973977;28;20030;-57
2022/01/21 12:32:54;;;;;;;8.25;4.93;;;;;;;;;;4974425;28;20387;-55
2022/01/21 12:35:21;;;;;;;5.97;3.90;;;;;;;;;;4975065;28;20023;-56
2022/01/21 12:39:05;;;;;;;13.10;4.35;;;;;;;;;;4974717;28;20027;-57
2022/01/21 12:40:53;;;;;;;6.88;3.80;;;;;;;;;;4974577;28;20038;-56
2022/01/21 12:43:39;;;;;;;7.30;3.47;;;;;;;;;;4974947;28;20081;-57
2022/01/21 12:46:07;;;;;;;7.95;3.20;;;;;;;;;;4974114;28;20114;-58
2022/01/21 12:48:38;;;;;;;9.68;5.05;;;;;;;;;;4974793;28;20023;-57
2022/01/21 12:51:16;;;;;;;11.47;5.50;;;;;;;;;;4974733;28;20465;-55
2022/01/21 12:55:55;;;;;;;20.10;7.50;;;;;;;;;;4974141;28;20029;-51
2022/01/21 12:56:34;;;;;;;22.27;9.48;;;;;;;;;;4974478;28;20022;-56
2022/01/21 12:59:00;;;;;;;9.77;5.30;;;;;;;;;;4981454;28;20026;-56
2022/01/21 13:01:26;;;;;;;10.85;4.70;;;;;;;;;;4994371;28;20396;-57
2022/01/21 13:04:02;;;;;;;9.35;4.68;;;;;;;;;;4994068;28;20033;-57
2022/01/21 13:06:47;;;;;;;10.07;5.72;;;;;;;;;;4993835;28;20367;-58
2022/01/21 13:09:18;;;;;;;12.20;5.10;;;;;;;;;;4993778;28;20488;-60
2022/01/21 13:11:53;;;;;;;6.88;3.40;;;;;;;;;;4994158;28;20027;-57
2022/01/21 13:17:09;;;;;;;7.50;3.40;;;;;;;;;;4994791;28;20034;-58
2022/01/21 13:19:48;;;;;;;6.65;3.63;;;;;;;;;;4993275;28;20034;-57
2022/01/21 13:22:21;;;;;;;15.85;4.55;;;;;;;;;;4993588;28;20069;-55
2022/01/21 13:25:04;;;;;;;9.50;4.45;;;;;;;;;;4993639;28;20106;-58
2022/01/21 13:27:30;;;;;;;8.55;4.30;;;;;;;;;;4993342;28;20463;-58
2022/01/21 13:30:01;;;;;;;8.38;3.78;;;;;;;;;;4993704;28;20077;-59
2022/01/21 13:32:27;;;;;;;7.40;4.10;;;;;;;;;;4994216;28;20062;-61
2022/01/21 13:35:05;;;;;;;9.27;4.60;;;;;;;;;;4993313;28;20015;-60
2022/01/21 13:37:31;;;;;;;7.20;3.65;;;;;;;;;;4993611;28;20447;-56
2022/01/21 13:39:57;;;;;;;10.88;2.97;;;;;;;;;;4993838;28;20113;-59
2022/01/21 13:42:26;;;;;;;8.63;4.30;;;;;;;;;;4993187;28;20038;-59
2022/01/21 13:44:53;;;;;;;11.18;4.35;;;;;;;;;;4993330;28;20050;-55
2022/01/21 13:47:39;;;;;;;6.30;3.78;;;;;;;;;;4992724;28;20033;-63
2022/01/21 13:50:15;;;;;;;7.47;4.00;;;;;;;;;;4993144;28;20061;-61
2022/01/21 13:52:41;;;;;;;10.32;4.57;;;;;;;;;;4996263;28;20041;-59
2022/01/21 13:55:09;;;;;;;7.15;3.80;;;;;;;;;;4996990;28;20018;-60
2022/01/21 13:57:35;;;;;;;9.85;4.28;;;;;;;;;;4997447;28;20019;-57
2022/01/21 14:00:01;;;;;;;11.48;3.63;;;;;;;;;;4997127;28;20023;-58
2022/01/21 14:02:27;;;;;;;8.52;3.65;;;;;;;;;;4996569;28;20042;-58
2022/01/21 14:04:55;;;;;;;10.48;4.05;;;;;;;;;;4997152;28;20029;-62
2022/01/21 14:07:34;;;;;;;8.95;3.97;;;;;;;;;;4997319;28;20022;-61
2022/01/21 14:10:07;;;;;;;13.38;6.10;;;;;;;;;;4996258;28;20050;-60
2022/01/21 14:12:33;;;;;;;9.75;5.75;;;;;;;;;;4996803;28;20037;-63
2022/01/21 14:15:00;;;;;;;13.82;5.78;;;;;;;;;;4995788;28;20021;-61
2022/01/21 14:17:26;;;;;;;10.82;5.88;;;;;;;;;;4996332;28;20029;-61
2022/01/21 14:19:53;;;;;;;17.88;6.90;;;;;;;;;;4997116;28;20030;-58
2022/01/21 14:22:20;;;;;;;16.50;6.68;;;;;;;;;;4996641;28;20026;-61
2022/01/21 14:24:48;;;;;;;15.35;6.18;;;;;;;;;;4996292;28;20026;-59
2022/01/21 14:27:24;;;;;;;15.57;7.05;;;;;;;;;;4996649;28;20028;-59
2022/01/21 14:29:52;;;;;;;19.58;8.57;;;;;;;;;;4996189;28;20036;-62
2022/01/21 14:32:22;;;;;;;19.42;8.15;;;;;;;;;;4996431;28;20034;-57
2022/01/21 14:34:49;;;;;;;13.77;5.82;;;;;;;;;;4996207;28;20475;-61
2022/01/21 14:37:21;;;;;;;10.50;4.55;;;;;;;;;;4996395;28;20081;-63
2022/01/21 14:39:51;;;;;;;9.77;4.22;;;;;;;;;;4996236;28;20033;-59
2022/01/21 14:42:24;;;;;;;11.80;4.07;;;;;;;;;;4996125;28;20014;-60
2022/01/21 14:44:50;;;;;;;9.85;4.57;;;;;;;;;;4996003;28;20032;-61
2022/01/21 14:47:18;;;;;;;9.90;3.97;;;;;;;;;;4996411;28;20065;-59
2022/01/21 14:49:46;;;;;;;7.78;3.30;;;;;;;;;;4995862;28;20029;-62
2022/01/21 14:54:55;;;;;;;8.45;3.40;;;;;;;;;;4996210;28;20476;-60
2022/01/21 14:57:32;;;;;;;5.25;3.10;;;;;;;;;;4996278;28;20073;-59
2022/01/21 15:00:00;;;;;;;6.20;3.40;;;;;;;;;;4995878;28;20041;-59
2022/01/21 15:02:27;;;;;;;7.63;3.85;;;;;;;;;;4994714;28;20073;-58
2022/01/21 15:04:54;;;;;;;6.95;4.18;;;;;;;;;;4995495;28;20089;-60
2022/01/21 15:07:25;;;;;;;8.43;4.57;;;;;;;;;;4994268;28;20026;-60
2022/01/21 15:09:53;;;;;;;9.18;4.80;;;;;;;;;;4995359;28;20055;-57
2022/01/21 15:15:27;;;;;;;9.18;4.18;;;;;;;;;;4995380;28;20037;-58
2022/01/21 15:17:55;;;;;;;10.25;4.45;;;;;;;;;;4995603;28;20407;-61
2022/01/21 15:20:22;;;;;;;7.85;4.40;;;;;;;;;;4995611;28;20030;-59
2022/01/21 15:22:48;;;;;;;11.23;4.30;;;;;;;;;;4995579;28;20237;-61
2022/01/21 15:25:17;;;;;;;10.82;4.43;;;;;;;;;;4995445;28;20018;-62
2022/01/21 15:27:43;;;;;;;7.47;3.20;;;;;;;;;;4994943;28;20022;-57
2022/01/21 15:30:10;;;;;;;8.10;3.35;;;;;;;;;;4995343;28;20113;-62
2022/01/21 15:32:36;;;;;;;6.82;3.47;;;;;;;;;;4995372;28;20346;-61
2022/01/21 15:35:04;;;;;;;8.38;2.78;;;;;;;;;;4994944;28;20022;-60
2022/01/21 15:37:30;;;;;;;9.32;3.85;;;;;;;;;;4995301;28;20026;-58
2022/01/21 15:39:56;;;;;;;10.30;4.80;;;;;;;;;;4994692;28;20026;-60